sensor_id;sensor_type;location;lat;lon;timestamp;P1;durP1;ratioP1;P2;durP2;ratioP2
69220;SDS011;56331;51.992;20.910;2022-10-30T00:00:41;4.55;;;3.15;;
69220;SDS011;56331;51.992;20.910;2022-10-30T00:03:13;4.85;;;3.27;;
69220;SDS011;56331;51.992;20.910;2022-10-30T00:05:44;4.30;;;2.95;;
69220;SDS011;56331;51.992;20.910;2022-10-30T00:08:13;4.33;;;3.10;;
69220;SDS011;56331;51.992;20.910;2022-10-30T00:10:41;5.22;;;2.85;;
69220;SDS011;56331;51.992;20.910;2022-10-30T00:13:08;4.20;;;2.90;;
69220;SDS011;56331;51.992;20.910;2022-10-30T00:15:35;5.50;;;3.02;;
69220;SDS011;56331;51.992;20.910;2022-10-30T00:18:02;5.47;;;3.10;;
69220;SDS011;56331;51.992;20.910;2022-10-30T00:20:29;5.42;;;3.33;;
69220;SDS011;56331;51.992;20.910;2022-10-30T00:22:56;5.33;;;2.95;;
69220;SDS011;56331;51.992;20.910;2022-10-30T00:25:23;4.45;;;2.87;;
69220;SDS011;56331;51.992;20.910;2022-10-30T00:27:49;3.90;;;2.90;;
69220;SDS011;56331;51.992;20.910;2022-10-30T00:30:15;4.10;;;2.83;;
69220;SDS011;56331;51.992;20.910;2022-10-30T00:32:43;4.40;;;2.90;;
69220;SDS011;56331;51.992;20.910;2022-10-30T00:35:09;5.90;;;2.72;;
69220;SDS011;56331;51.992;20.910;2022-10-30T00:37:36;4.28;;;2.83;;
69220;SDS011;56331;51.992;20.910;2022-10-30T00:40:02;5.22;;;2.98;;
69220;SDS011;56331;51.992;20.910;2022-10-30T00:42:30;5.40;;;3.08;;
69220;SDS011;56331;51.992;20.910;2022-10-30T00:44:57;4.75;;;3.20;;
69220;SDS011;56331;51.992;20.910;2022-10-30T00:47:42;4.58;;;2.83;;
69220;SDS011;56331;51.992;20.910;2022-10-30T00:50:22;4.45;;;3.00;;
69220;SDS011;56331;51.992;20.910;2022-10-30T00:52:51;3.92;;;2.92;;
69220;SDS011;56331;51.992;20.910;2022-10-30T00:55:39;4.40;;;3.02;;
69220;SDS011;56331;51.992;20.910;2022-10-30T00:58:09;5.42;;;3.47;;
69220;SDS011;56331;51.992;20.910;2022-10-30T01:03:06;5.53;;;3.00;;
69220;SDS011;56331;51.992;20.910;2022-10-30T01:05:32;4.17;;;2.95;;
69220;SDS011;56331;51.992;20.910;2022-10-30T01:08:01;5.62;;;2.98;;
69220;SDS011;56331;51.992;20.910;2022-10-30T01:10:27;3.83;;;2.60;;
69220;SDS011;56331;51.992;20.910;2022-10-30T01:12:54;5.45;;;3.47;;
69220;SDS011;56331;51.992;20.910;2022-10-30T01:15:25;3.62;;;2.72;;
69220;SDS011;56331;51.992;20.910;2022-10-30T01:20:48;4.67;;;3.05;;
69220;SDS011;56331;51.992;20.910;2022-10-30T01:26:16;4.80;;;2.60;;
69220;SDS011;56331;51.992;20.910;2022-10-30T01:31:43;4.10;;;3.00;;
69220;SDS011;56331;51.992;20.910;2022-10-30T01:34:18;4.42;;;2.80;;
69220;SDS011;56331;51.992;20.910;2022-10-30T01:37:04;4.67;;;3.30;;
69220;SDS011;56331;51.992;20.910;2022-10-30T01:39:30;4.62;;;3.02;;
69220;SDS011;56331;51.992;20.910;2022-10-30T01:41:58;5.85;;;2.98;;
69220;SDS011;56331;51.992;20.910;2022-10-30T01:44:26;3.65;;;2.50;;
69220;SDS011;56331;51.992;20.910;2022-10-30T01:52:29;5.53;;;3.00;;
69220;SDS011;56331;51.992;20.910;2022-10-30T01:55:02;4.50;;;2.98;;
69220;SDS011;56331;51.992;20.910;2022-10-30T02:00:16;5.15;;;2.90;;
69220;SDS011;56331;51.992;20.910;2022-10-30T02:02:45;4.95;;;3.27;;
69220;SDS011;56331;51.992;20.910;2022-10-30T02:05:37;5.67;;;3.80;;
69220;SDS011;56331;51.992;20.910;2022-10-30T02:07:52;5.17;;;3.47;;
69220;SDS011;56331;51.992;20.910;2022-10-30T02:10:19;5.05;;;3.55;;
69220;SDS011;56331;51.992;20.910;2022-10-30T02:12:46;6.92;;;3.67;;
69220;SDS011;56331;51.992;20.910;2022-10-30T02:15:12;4.62;;;3.42;;
69220;SDS011;56331;51.992;20.910;2022-10-30T02:17:39;4.42;;;3.30;;
69220;SDS011;56331;51.992;20.910;2022-10-30T02:20:06;3.87;;;3.05;;
69220;SDS011;56331;51.992;20.910;2022-10-30T02:22:35;5.33;;;3.72;;
69220;SDS011;56331;51.992;20.910;2022-10-30T02:25:01;5.12;;;3.30;;
69220;SDS011;56331;51.992;20.910;2022-10-30T02:27:28;6.22;;;3.50;;
69220;SDS011;56331;51.992;20.910;2022-10-30T02:29:54;4.35;;;3.37;;
69220;SDS011;56331;51.992;20.910;2022-10-30T02:32:20;3.95;;;3.22;;
69220;SDS011;56331;51.992;20.910;2022-10-30T02:34:47;6.28;;;3.92;;
69220;SDS011;56331;51.992;20.910;2022-10-30T02:37:13;4.40;;;3.40;;
69220;SDS011;56331;51.992;20.910;2022-10-30T02:39:39;5.62;;;3.25;;
69220;SDS011;56331;51.992;20.910;2022-10-30T02:42:06;6.15;;;3.47;;
69220;SDS011;56331;51.992;20.910;2022-10-30T02:44:33;5.85;;;3.80;;
69220;SDS011;56331;51.992;20.910;2022-10-30T02:46:59;6.00;;;3.90;;
69220;SDS011;56331;51.992;20.910;2022-10-30T02:49:25;5.25;;;3.40;;
69220;SDS011;56331;51.992;20.910;2022-10-30T02:51:52;4.83;;;3.27;;
69220;SDS011;56331;51.992;20.910;2022-10-30T02:54:18;4.67;;;3.40;;
69220;SDS011;56331;51.992;20.910;2022-10-30T02:56:44;5.20;;;3.65;;
69220;SDS011;56331;51.992;20.910;2022-10-30T02:59:11;4.42;;;3.40;;
69220;SDS011;56331;51.992;20.910;2022-10-30T03:01:37;5.00;;;3.52;;
69220;SDS011;56331;51.992;20.910;2022-10-30T03:04:04;4.10;;;3.20;;
69220;SDS011;56331;51.992;20.910;2022-10-30T03:06:31;4.53;;;3.02;;
69220;SDS011;56331;51.992;20.910;2022-10-30T03:08:58;5.53;;;3.70;;
69220;SDS011;56331;51.992;20.910;2022-10-30T03:11:24;4.03;;;3.17;;
69220;SDS011;56331;51.992;20.910;2022-10-30T03:13:51;5.90;;;3.62;;
69220;SDS011;56331;51.992;20.910;2022-10-30T03:16:19;4.75;;;3.25;;
69220;SDS011;56331;51.992;20.910;2022-10-30T03:18:47;4.50;;;3.15;;
69220;SDS011;56331;51.992;20.910;2022-10-30T03:21:15;4.00;;;2.83;;
69220;SDS011;56331;51.992;20.910;2022-10-30T03:23:43;4.33;;;3.30;;
69220;SDS011;56331;51.992;20.910;2022-10-30T03:26:10;4.47;;;3.20;;
69220;SDS011;56331;51.992;20.910;2022-10-30T03:28:37;5.67;;;3.37;;
69220;SDS011;56331;51.992;20.910;2022-10-30T03:33:35;4.12;;;3.30;;
69220;SDS011;56331;51.992;20.910;2022-10-30T03:36:03;6.22;;;3.50;;
69220;SDS011;56331;51.992;20.910;2022-10-30T03:38:31;5.30;;;3.12;;
69220;SDS011;56331;51.992;20.910;2022-10-30T03:40:58;5.53;;;3.77;;
69220;SDS011;56331;51.992;20.910;2022-10-30T03:43:24;4.75;;;3.15;;
69220;SDS011;56331;51.992;20.910;2022-10-30T03:45:52;4.37;;;3.37;;
69220;SDS011;56331;51.992;20.910;2022-10-30T03:48:21;4.53;;;3.52;;
69220;SDS011;56331;51.992;20.910;2022-10-30T03:50:50;3.93;;;3.07;;
69220;SDS011;56331;51.992;20.910;2022-10-30T03:53:17;5.03;;;3.40;;
69220;SDS011;56331;51.992;20.910;2022-10-30T03:55:43;4.67;;;3.15;;
69220;SDS011;56331;51.992;20.910;2022-10-30T03:58:10;6.60;;;3.37;;
69220;SDS011;56331;51.992;20.910;2022-10-30T04:03:08;4.42;;;2.62;;
69220;SDS011;56331;51.992;20.910;2022-10-30T04:05:36;3.95;;;3.00;;
69220;SDS011;56331;51.992;20.910;2022-10-30T04:08:04;3.85;;;2.80;;
69220;SDS011;56331;51.992;20.910;2022-10-30T04:10:33;3.87;;;2.90;;
69220;SDS011;56331;51.992;20.910;2022-10-30T04:13:04;5.10;;;3.17;;
69220;SDS011;56331;51.992;20.910;2022-10-30T04:15:32;4.83;;;3.12;;
69220;SDS011;56331;51.992;20.910;2022-10-30T04:17:59;4.62;;;3.15;;
69220;SDS011;56331;51.992;20.910;2022-10-30T04:20:26;3.77;;;2.87;;
69220;SDS011;56331;51.992;20.910;2022-10-30T04:22:56;3.40;;;2.72;;
69220;SDS011;56331;51.992;20.910;2022-10-30T04:25:24;4.08;;;3.00;;
69220;SDS011;56331;51.992;20.910;2022-10-30T04:27:52;3.92;;;3.08;;
69220;SDS011;56331;51.992;20.910;2022-10-30T04:30:18;4.08;;;3.00;;
69220;SDS011;56331;51.992;20.910;2022-10-30T04:32:50;4.62;;;3.22;;
69220;SDS011;56331;51.992;20.910;2022-10-30T04:35:18;3.98;;;3.10;;
69220;SDS011;56331;51.992;20.910;2022-10-30T04:37:51;3.98;;;2.87;;
69220;SDS011;56331;51.992;20.910;2022-10-30T04:40:22;4.10;;;3.12;;
69220;SDS011;56331;51.992;20.910;2022-10-30T04:42:50;3.92;;;2.90;;
69220;SDS011;56331;51.992;20.910;2022-10-30T04:45:17;3.90;;;2.87;;
69220;SDS011;56331;51.992;20.910;2022-10-30T04:47:43;3.70;;;3.00;;
69220;SDS011;56331;51.992;20.910;2022-10-30T04:50:11;3.87;;;2.67;;
69220;SDS011;56331;51.992;20.910;2022-10-30T04:52:38;4.22;;;2.92;;
69220;SDS011;56331;51.992;20.910;2022-10-30T04:55:05;3.90;;;3.17;;
69220;SDS011;56331;51.992;20.910;2022-10-30T04:57:34;4.37;;;2.65;;
69220;SDS011;56331;51.992;20.910;2022-10-30T05:00:06;4.53;;;2.80;;
69220;SDS011;56331;51.992;20.910;2022-10-30T05:02:30;5.55;;;3.40;;
69220;SDS011;56331;51.992;20.910;2022-10-30T05:04:57;3.87;;;2.70;;
69220;SDS011;56331;51.992;20.910;2022-10-30T05:07:23;4.47;;;2.80;;
69220;SDS011;56331;51.992;20.910;2022-10-30T05:09:50;5.28;;;3.17;;
69220;SDS011;56331;51.992;20.910;2022-10-30T05:12:16;4.90;;;2.87;;
69220;SDS011;56331;51.992;20.910;2022-10-30T05:14:44;4.15;;;3.05;;
69220;SDS011;56331;51.992;20.910;2022-10-30T05:17:14;4.53;;;2.90;;
69220;SDS011;56331;51.992;20.910;2022-10-30T05:19:42;4.30;;;3.20;;
69220;SDS011;56331;51.992;20.910;2022-10-30T05:22:08;4.15;;;2.65;;
69220;SDS011;56331;51.992;20.910;2022-10-30T05:24:35;4.97;;;3.05;;
69220;SDS011;56331;51.992;20.910;2022-10-30T05:27:02;4.62;;;2.87;;
69220;SDS011;56331;51.992;20.910;2022-10-30T05:29:28;5.20;;;2.90;;
69220;SDS011;56331;51.992;20.910;2022-10-30T05:31:55;3.45;;;2.37;;
69220;SDS011;56331;51.992;20.910;2022-10-30T05:34:22;3.90;;;2.62;;
69220;SDS011;56331;51.992;20.910;2022-10-30T05:36:48;4.03;;;2.85;;
69220;SDS011;56331;51.992;20.910;2022-10-30T05:39:15;4.58;;;3.00;;
69220;SDS011;56331;51.992;20.910;2022-10-30T05:41:42;4.35;;;2.77;;
69220;SDS011;56331;51.992;20.910;2022-10-30T05:44:08;4.35;;;2.85;;
69220;SDS011;56331;51.992;20.910;2022-10-30T05:46:35;4.08;;;2.83;;
69220;SDS011;56331;51.992;20.910;2022-10-30T05:49:01;3.58;;;2.77;;
69220;SDS011;56331;51.992;20.910;2022-10-30T05:51:28;4.17;;;2.90;;
69220;SDS011;56331;51.992;20.910;2022-10-30T05:53:55;4.45;;;3.10;;
69220;SDS011;56331;51.992;20.910;2022-10-30T05:56:21;3.20;;;2.50;;
69220;SDS011;56331;51.992;20.910;2022-10-30T05:58:48;3.92;;;2.80;;
69220;SDS011;56331;51.992;20.910;2022-10-30T06:01:15;3.90;;;2.90;;
69220;SDS011;56331;51.992;20.910;2022-10-30T06:03:42;4.67;;;2.95;;
69220;SDS011;56331;51.992;20.910;2022-10-30T06:06:08;5.12;;;2.90;;
69220;SDS011;56331;51.992;20.910;2022-10-30T06:08:35;4.62;;;3.00;;
69220;SDS011;56331;51.992;20.910;2022-10-30T06:11:01;3.35;;;2.62;;
69220;SDS011;56331;51.992;20.910;2022-10-30T06:13:28;3.98;;;2.85;;
69220;SDS011;56331;51.992;20.910;2022-10-30T06:15:55;3.92;;;2.87;;
69220;SDS011;56331;51.992;20.910;2022-10-30T06:18:22;3.08;;;2.30;;
69220;SDS011;56331;51.992;20.910;2022-10-30T06:20:49;4.37;;;3.02;;
69220;SDS011;56331;51.992;20.910;2022-10-30T06:23:15;4.15;;;2.90;;
69220;SDS011;56331;51.992;20.910;2022-10-30T06:25:41;3.95;;;2.85;;
69220;SDS011;56331;51.992;20.910;2022-10-30T06:28:09;4.25;;;2.50;;
69220;SDS011;56331;51.992;20.910;2022-10-30T06:30:36;3.25;;;2.55;;
69220;SDS011;56331;51.992;20.910;2022-10-30T06:33:03;6.40;;;2.80;;
69220;SDS011;56331;51.992;20.910;2022-10-30T06:35:29;4.78;;;2.77;;
69220;SDS011;56331;51.992;20.910;2022-10-30T06:37:57;3.55;;;2.70;;
69220;SDS011;56331;51.992;20.910;2022-10-30T06:40:25;4.30;;;2.70;;
69220;SDS011;56331;51.992;20.910;2022-10-30T06:42:52;4.42;;;2.83;;
69220;SDS011;56331;51.992;20.910;2022-10-30T06:45:20;3.90;;;2.60;;
69220;SDS011;56331;51.992;20.910;2022-10-30T06:47:48;4.15;;;3.00;;
69220;SDS011;56331;51.992;20.910;2022-10-30T06:50:16;4.20;;;2.72;;
69220;SDS011;56331;51.992;20.910;2022-10-30T06:52:43;4.55;;;2.60;;
69220;SDS011;56331;51.992;20.910;2022-10-30T06:55:10;3.87;;;2.80;;
69220;SDS011;56331;51.992;20.910;2022-10-30T06:57:37;4.12;;;3.00;;
69220;SDS011;56331;51.992;20.910;2022-10-30T07:00:04;4.90;;;3.00;;
69220;SDS011;56331;51.992;20.910;2022-10-30T07:02:33;3.15;;;2.80;;
69220;SDS011;56331;51.992;20.910;2022-10-30T07:05:00;5.05;;;2.80;;
69220;SDS011;56331;51.992;20.910;2022-10-30T07:07:26;4.10;;;2.65;;
69220;SDS011;56331;51.992;20.910;2022-10-30T07:09:53;4.28;;;2.77;;
69220;SDS011;56331;51.992;20.910;2022-10-30T07:12:20;4.97;;;2.72;;
69220;SDS011;56331;51.992;20.910;2022-10-30T07:14:47;6.58;;;3.02;;
69220;SDS011;56331;51.992;20.910;2022-10-30T07:17:13;4.20;;;2.80;;
69220;SDS011;56331;51.992;20.910;2022-10-30T07:19:39;5.78;;;2.85;;
69220;SDS011;56331;51.992;20.910;2022-10-30T07:22:06;3.90;;;2.42;;
69220;SDS011;56331;51.992;20.910;2022-10-30T07:24:32;4.78;;;3.17;;
69220;SDS011;56331;51.992;20.910;2022-10-30T07:26:58;4.30;;;2.55;;
69220;SDS011;56331;51.992;20.910;2022-10-30T07:29:25;4.55;;;3.08;;
69220;SDS011;56331;51.992;20.910;2022-10-30T07:31:51;4.45;;;2.80;;
69220;SDS011;56331;51.992;20.910;2022-10-30T07:34:17;4.30;;;2.95;;
69220;SDS011;56331;51.992;20.910;2022-10-30T07:36:44;3.80;;;2.62;;
69220;SDS011;56331;51.992;20.910;2022-10-30T07:39:10;4.00;;;2.98;;
69220;SDS011;56331;51.992;20.910;2022-10-30T07:41:37;5.35;;;2.70;;
69220;SDS011;56331;51.992;20.910;2022-10-30T07:44:03;5.95;;;2.98;;
69220;SDS011;56331;51.992;20.910;2022-10-30T07:46:30;3.75;;;2.62;;
69220;SDS011;56331;51.992;20.910;2022-10-30T07:48:56;4.90;;;3.10;;
69220;SDS011;56331;51.992;20.910;2022-10-30T07:51:23;4.40;;;3.00;;
69220;SDS011;56331;51.992;20.910;2022-10-30T07:53:49;3.95;;;2.92;;
69220;SDS011;56331;51.992;20.910;2022-10-30T07:56:16;3.47;;;2.40;;
69220;SDS011;56331;51.992;20.910;2022-10-30T07:58:42;4.03;;;2.70;;
69220;SDS011;56331;51.992;20.910;2022-10-30T08:01:09;3.95;;;2.52;;
69220;SDS011;56331;51.992;20.910;2022-10-30T08:03:35;3.45;;;2.65;;
69220;SDS011;56331;51.992;20.910;2022-10-30T08:06:02;4.05;;;2.50;;
69220;SDS011;56331;51.992;20.910;2022-10-30T08:08:28;4.15;;;2.72;;
69220;SDS011;56331;51.992;20.910;2022-10-30T08:10:55;5.70;;;2.62;;
69220;SDS011;56331;51.992;20.910;2022-10-30T08:13:21;4.72;;;2.92;;
69220;SDS011;56331;51.992;20.910;2022-10-30T08:15:48;4.10;;;2.58;;
69220;SDS011;56331;51.992;20.910;2022-10-30T08:18:14;3.30;;;2.33;;
69220;SDS011;56331;51.992;20.910;2022-10-30T08:20:41;4.33;;;2.70;;
69220;SDS011;56331;51.992;20.910;2022-10-30T08:23:09;5.03;;;2.90;;
69220;SDS011;56331;51.992;20.910;2022-10-30T08:25:35;4.47;;;2.52;;
69220;SDS011;56331;51.992;20.910;2022-10-30T08:28:05;4.03;;;2.60;;
69220;SDS011;56331;51.992;20.910;2022-10-30T08:30:34;3.83;;;2.50;;
69220;SDS011;56331;51.992;20.910;2022-10-30T08:33:02;4.08;;;2.75;;
69220;SDS011;56331;51.992;20.910;2022-10-30T08:35:30;3.98;;;2.50;;
69220;SDS011;56331;51.992;20.910;2022-10-30T08:37:57;3.60;;;2.58;;
69220;SDS011;56331;51.992;20.910;2022-10-30T08:40:25;3.77;;;2.40;;
69220;SDS011;56331;51.992;20.910;2022-10-30T08:42:52;3.22;;;2.45;;
69220;SDS011;56331;51.992;20.910;2022-10-30T08:45:20;3.30;;;2.27;;
69220;SDS011;56331;51.992;20.910;2022-10-30T08:47:54;3.70;;;2.40;;
69220;SDS011;56331;51.992;20.910;2022-10-30T08:50:26;3.85;;;2.75;;
69220;SDS011;56331;51.992;20.910;2022-10-30T08:52:53;4.60;;;2.42;;
69220;SDS011;56331;51.992;20.910;2022-10-30T08:55:20;3.37;;;2.20;;
69220;SDS011;56331;51.992;20.910;2022-10-30T08:57:46;3.27;;;2.67;;
69220;SDS011;56331;51.992;20.910;2022-10-30T09:00:12;3.08;;;2.33;;
69220;SDS011;56331;51.992;20.910;2022-10-30T09:02:39;5.03;;;2.70;;
69220;SDS011;56331;51.992;20.910;2022-10-30T09:05:06;3.05;;;2.40;;
69220;SDS011;56331;51.992;20.910;2022-10-30T09:07:34;4.30;;;2.60;;
69220;SDS011;56331;51.992;20.910;2022-10-30T09:10:01;4.83;;;2.80;;
69220;SDS011;56331;51.992;20.910;2022-10-30T09:12:28;3.55;;;2.52;;
69220;SDS011;56331;51.992;20.910;2022-10-30T09:14:55;2.98;;;2.55;;
69220;SDS011;56331;51.992;20.910;2022-10-30T09:17:21;3.35;;;2.40;;
69220;SDS011;56331;51.992;20.910;2022-10-30T09:19:48;4.30;;;2.40;;
69220;SDS011;56331;51.992;20.910;2022-10-30T09:22:15;3.35;;;2.52;;
69220;SDS011;56331;51.992;20.910;2022-10-30T09:24:41;3.40;;;2.30;;
69220;SDS011;56331;51.992;20.910;2022-10-30T09:27:07;2.58;;;2.30;;
69220;SDS011;56331;51.992;20.910;2022-10-30T09:29:34;4.00;;;2.50;;
69220;SDS011;56331;51.992;20.910;2022-10-30T09:32:00;3.70;;;2.55;;
69220;SDS011;56331;51.992;20.910;2022-10-30T09:34:29;3.47;;;2.53;;
69220;SDS011;56331;51.992;20.910;2022-10-30T09:36:55;3.42;;;2.17;;
69220;SDS011;56331;51.992;20.910;2022-10-30T09:39:22;4.92;;;2.70;;
69220;SDS011;56331;51.992;20.910;2022-10-30T09:42:12;2.80;;;2.20;;
69220;SDS011;56331;51.992;20.910;2022-10-30T09:50:30;3.85;;;2.30;;
69220;SDS011;56331;51.992;20.910;2022-10-30T10:00:43;3.70;;;2.30;;
69220;SDS011;56331;51.992;20.910;2022-10-30T10:03:25;3.62;;;2.47;;
69220;SDS011;56331;51.992;20.910;2022-10-30T10:05:55;4.17;;;2.70;;
69220;SDS011;56331;51.992;20.910;2022-10-30T10:08:28;3.67;;;2.47;;
69220;SDS011;56331;51.992;20.910;2022-10-30T10:10:56;3.00;;;2.25;;
69220;SDS011;56331;51.992;20.910;2022-10-30T10:13:45;4.12;;;2.55;;
69220;SDS011;56331;51.992;20.910;2022-10-30T10:16:14;3.37;;;2.15;;
69220;SDS011;56331;51.992;20.910;2022-10-30T10:18:57;2.60;;;2.10;;
69220;SDS011;56331;51.992;20.910;2022-10-30T10:21:45;3.65;;;2.00;;
69220;SDS011;56331;51.992;20.910;2022-10-30T10:24:15;3.75;;;2.35;;
69220;SDS011;56331;51.992;20.910;2022-10-30T10:37:33;3.40;;;1.85;;
69220;SDS011;56331;51.992;20.910;2022-10-30T10:51:28;3.10;;;2.08;;
69220;SDS011;56331;51.992;20.910;2022-10-30T10:56:29;3.12;;;2.00;;
69220;SDS011;56331;51.992;20.910;2022-10-30T10:59:02;2.55;;;1.95;;
69220;SDS011;56331;51.992;20.910;2022-10-30T11:06:55;4.28;;;2.00;;
69220;SDS011;56331;51.992;20.910;2022-10-30T11:09:23;3.35;;;2.33;;
69220;SDS011;56331;51.992;20.910;2022-10-30T11:11:54;3.00;;;2.02;;
69220;SDS011;56331;51.992;20.910;2022-10-30T11:14:22;3.45;;;2.02;;
69220;SDS011;56331;51.992;20.910;2022-10-30T11:17:04;3.17;;;2.27;;
69220;SDS011;56331;51.992;20.910;2022-10-30T11:19:45;2.77;;;2.10;;
69220;SDS011;56331;51.992;20.910;2022-10-30T11:27:55;4.15;;;1.90;;
69220;SDS011;56331;51.992;20.910;2022-10-30T11:30:24;3.70;;;2.15;;
69220;SDS011;56331;51.992;20.910;2022-10-30T11:32:54;3.02;;;2.02;;
69220;SDS011;56331;51.992;20.910;2022-10-30T11:35:22;2.67;;;1.90;;
69220;SDS011;56331;51.992;20.910;2022-10-30T11:37:49;2.47;;;1.72;;
69220;SDS011;56331;51.992;20.910;2022-10-30T11:40:19;3.83;;;2.43;;
69220;SDS011;56331;51.992;20.910;2022-10-30T11:45:23;2.58;;;1.82;;
69220;SDS011;56331;51.992;20.910;2022-10-30T11:47:52;2.20;;;1.60;;
69220;SDS011;56331;51.992;20.910;2022-10-30T11:50:22;3.22;;;2.05;;
69220;SDS011;56331;51.992;20.910;2022-10-30T11:52:51;2.98;;;2.17;;
69220;SDS011;56331;51.992;20.910;2022-10-30T11:55:25;2.67;;;1.90;;
69220;SDS011;56331;51.992;20.910;2022-10-30T11:57:59;3.12;;;2.15;;
69220;SDS011;56331;51.992;20.910;2022-10-30T12:00:26;2.47;;;1.67;;
69220;SDS011;56331;51.992;20.910;2022-10-30T12:02:55;2.92;;;2.00;;
69220;SDS011;56331;51.992;20.910;2022-10-30T12:08:38;3.05;;;1.95;;
69220;SDS011;56331;51.992;20.910;2022-10-30T12:13:15;3.00;;;2.00;;
69220;SDS011;56331;51.992;20.910;2022-10-30T12:15:43;3.08;;;2.12;;
69220;SDS011;56331;51.992;20.910;2022-10-30T12:18:30;2.95;;;2.08;;
69220;SDS011;56331;51.992;20.910;2022-10-30T12:20:48;3.30;;;2.15;;
69220;SDS011;56331;51.992;20.910;2022-10-30T12:25:50;2.83;;;1.98;;
69220;SDS011;56331;51.992;20.910;2022-10-30T12:28:22;2.33;;;1.60;;
69220;SDS011;56331;51.992;20.910;2022-10-30T12:30:57;2.15;;;1.92;;
69220;SDS011;56331;51.992;20.910;2022-10-30T12:35:56;2.75;;;1.80;;
69220;SDS011;56331;51.992;20.910;2022-10-30T12:38:27;2.70;;;1.82;;
69220;SDS011;56331;51.992;20.910;2022-10-30T12:43:36;2.77;;;1.85;;
69220;SDS011;56331;51.992;20.910;2022-10-30T12:49:05;2.50;;;1.82;;
69220;SDS011;56331;51.992;20.910;2022-10-30T12:56:46;2.67;;;1.92;;
69220;SDS011;56331;51.992;20.910;2022-10-30T13:01:54;2.25;;;1.77;;
69220;SDS011;56331;51.992;20.910;2022-10-30T13:04:35;1.95;;;1.55;;
69220;SDS011;56331;51.992;20.910;2022-10-30T13:14:44;2.62;;;1.80;;
69220;SDS011;56331;51.992;20.910;2022-10-30T13:17:19;2.42;;;1.77;;
69220;SDS011;56331;51.992;20.910;2022-10-30T13:19:46;1.65;;;1.37;;
69220;SDS011;56331;51.992;20.910;2022-10-30T13:22:22;3.12;;;2.05;;
69220;SDS011;56331;51.992;20.910;2022-10-30T13:27:38;3.15;;;1.98;;
69220;SDS011;56331;51.992;20.910;2022-10-30T13:30:16;2.10;;;1.50;;
69220;SDS011;56331;51.992;20.910;2022-10-30T13:33:02;2.80;;;1.70;;
69220;SDS011;56331;51.992;20.910;2022-10-30T13:40:39;2.00;;;1.40;;
69220;SDS011;56331;51.992;20.910;2022-10-30T13:46:19;2.20;;;1.37;;
69220;SDS011;56331;51.992;20.910;2022-10-30T13:51:42;2.75;;;1.70;;
69220;SDS011;56331;51.992;20.910;2022-10-30T13:57:04;2.62;;;1.80;;
69220;SDS011;56331;51.992;20.910;2022-10-30T14:05:12;2.40;;;1.50;;
69220;SDS011;56331;51.992;20.910;2022-10-30T14:07:48;2.85;;;1.80;;
69220;SDS011;56331;51.992;20.910;2022-10-30T14:10:40;2.65;;;1.70;;
69220;SDS011;56331;51.992;20.910;2022-10-30T14:13:22;3.02;;;2.00;;
69220;SDS011;56331;51.992;20.910;2022-10-30T14:15:55;1.77;;;1.35;;
69220;SDS011;56331;51.992;20.910;2022-10-30T14:18:45;2.72;;;1.98;;
69220;SDS011;56331;51.992;20.910;2022-10-30T14:24:16;2.90;;;1.65;;
69220;SDS011;56331;51.992;20.910;2022-10-30T14:26:45;1.95;;;1.50;;
69220;SDS011;56331;51.992;20.910;2022-10-30T14:39:54;2.40;;;1.70;;
69220;SDS011;56331;51.992;20.910;2022-10-30T14:47:47;2.45;;;1.50;;
69220;SDS011;56331;51.992;20.910;2022-10-30T14:52:59;2.30;;;1.47;;
69220;SDS011;56331;51.992;20.910;2022-10-30T14:58:37;2.98;;;1.60;;
69220;SDS011;56331;51.992;20.910;2022-10-30T15:06:28;2.33;;;1.50;;
69220;SDS011;56331;51.992;20.910;2022-10-30T15:16:29;2.83;;;1.90;;
69220;SDS011;56331;51.992;20.910;2022-10-30T15:23:56;2.95;;;1.80;;
69220;SDS011;56331;51.992;20.910;2022-10-30T15:26:27;3.12;;;2.08;;
69220;SDS011;56331;51.992;20.910;2022-10-30T15:28:56;2.50;;;1.70;;
69220;SDS011;56331;51.992;20.910;2022-10-30T15:31:24;2.90;;;1.85;;
69220;SDS011;56331;51.992;20.910;2022-10-30T15:33:52;2.40;;;1.80;;
69220;SDS011;56331;51.992;20.910;2022-10-30T15:36:20;2.42;;;1.55;;
69220;SDS011;56331;51.992;20.910;2022-10-30T15:39:10;1.90;;;1.50;;
69220;SDS011;56331;51.992;20.910;2022-10-30T15:41:49;3.77;;;2.02;;
69220;SDS011;56331;51.992;20.910;2022-10-30T15:44:19;2.60;;;1.80;;
69220;SDS011;56331;51.992;20.910;2022-10-30T15:46:49;3.15;;;1.72;;
69220;SDS011;56331;51.992;20.910;2022-10-30T15:52:10;3.62;;;1.70;;
69220;SDS011;56331;51.992;20.910;2022-10-30T15:56:58;3.67;;;1.80;;
69220;SDS011;56331;51.992;20.910;2022-10-30T15:59:26;2.40;;;1.85;;
69220;SDS011;56331;51.992;20.910;2022-10-30T16:01:55;2.22;;;1.57;;
69220;SDS011;56331;51.992;20.910;2022-10-30T16:04:29;3.17;;;1.80;;
69220;SDS011;56331;51.992;20.910;2022-10-30T16:06:58;3.33;;;2.30;;
69220;SDS011;56331;51.992;20.910;2022-10-30T16:09:28;2.15;;;1.72;;
69220;SDS011;56331;51.992;20.910;2022-10-30T16:11:57;3.10;;;2.05;;
69220;SDS011;56331;51.992;20.910;2022-10-30T16:14:27;2.77;;;2.25;;
69220;SDS011;56331;51.992;20.910;2022-10-30T16:17:00;4.45;;;2.92;;
69220;SDS011;56331;51.992;20.910;2022-10-30T16:19:28;5.40;;;3.65;;
69220;SDS011;56331;51.992;20.910;2022-10-30T16:21:57;5.45;;;3.75;;
69220;SDS011;56331;51.992;20.910;2022-10-30T16:24:25;7.15;;;3.72;;
69220;SDS011;56331;51.992;20.910;2022-10-30T16:27:06;4.67;;;2.83;;
69220;SDS011;56331;51.992;20.910;2022-10-30T16:29:30;4.75;;;2.77;;
69220;SDS011;56331;51.992;20.910;2022-10-30T16:31:58;4.85;;;2.70;;
69220;SDS011;56331;51.992;20.910;2022-10-30T16:37:04;3.20;;;2.62;;
69220;SDS011;56331;51.992;20.910;2022-10-30T16:39:33;3.75;;;2.50;;
69220;SDS011;56331;51.992;20.910;2022-10-30T16:42:01;4.67;;;2.75;;
69220;SDS011;56331;51.992;20.910;2022-10-30T16:44:29;4.62;;;2.50;;
69220;SDS011;56331;51.992;20.910;2022-10-30T16:49:32;4.58;;;2.87;;
69220;SDS011;56331;51.992;20.910;2022-10-30T16:52:04;4.45;;;2.77;;
69220;SDS011;56331;51.992;20.910;2022-10-30T16:54:36;4.12;;;2.75;;
69220;SDS011;56331;51.992;20.910;2022-10-30T16:57:08;3.30;;;2.40;;
69220;SDS011;56331;51.992;20.910;2022-10-30T16:59:34;4.00;;;2.50;;
69220;SDS011;56331;51.992;20.910;2022-10-30T17:02:04;3.22;;;2.50;;
69220;SDS011;56331;51.992;20.910;2022-10-30T17:07:33;3.90;;;2.80;;
69220;SDS011;56331;51.992;20.910;2022-10-30T17:09:39;2.72;;;2.33;;
69220;SDS011;56331;51.992;20.910;2022-10-30T17:17:38;4.67;;;2.77;;
69220;SDS011;56331;51.992;20.910;2022-10-30T17:22:47;3.58;;;2.70;;
69220;SDS011;56331;51.992;20.910;2022-10-30T17:25:27;3.08;;;2.50;;
69220;SDS011;56331;51.992;20.910;2022-10-30T17:27:59;4.28;;;2.95;;
69220;SDS011;56331;51.992;20.910;2022-10-30T17:32:57;3.72;;;2.62;;
69220;SDS011;56331;51.992;20.910;2022-10-30T17:35:23;4.25;;;2.67;;
69220;SDS011;56331;51.992;20.910;2022-10-30T17:37:49;4.42;;;2.55;;
69220;SDS011;56331;51.992;20.910;2022-10-30T17:40:16;4.12;;;2.85;;
69220;SDS011;56331;51.992;20.910;2022-10-30T17:42:44;4.30;;;3.08;;
69220;SDS011;56331;51.992;20.910;2022-10-30T17:45:13;4.30;;;2.98;;
69220;SDS011;56331;51.992;20.910;2022-10-30T17:47:39;4.33;;;2.90;;
69220;SDS011;56331;51.992;20.910;2022-10-30T17:50:06;5.12;;;3.30;;
69220;SDS011;56331;51.992;20.910;2022-10-30T17:52:33;3.60;;;2.72;;
69220;SDS011;56331;51.992;20.910;2022-10-30T17:55:00;4.65;;;3.15;;
69220;SDS011;56331;51.992;20.910;2022-10-30T17:57:27;4.87;;;3.12;;
69220;SDS011;56331;51.992;20.910;2022-10-30T17:59:54;3.90;;;2.90;;